createdAt,value
2018-12-21T00:02:00.709Z,78.50
2018-12-21T00:04:28.507Z,79.00
2018-12-21T00:06:56.262Z,80.10
2018-12-21T00:09:23.966Z,81.00
2018-12-21T00:14:54.391Z,80.30
2018-12-21T00:17:23.143Z,79.50
2018-12-21T00:19:50.884Z,77.60
2018-12-21T00:22:18.676Z,76.40
2018-12-21T00:24:46.442Z,76.40
2018-12-21T00:27:14.314Z,76.20
2018-12-21T00:29:42.047Z,73.30
2018-12-21T00:32:15.350Z,72.60
2018-12-21T00:34:48.820Z,72.30
2018-12-21T00:37:22.136Z,73.00
2018-12-21T00:39:55.582Z,74.40
2018-12-21T00:42:30.846Z,75.00
2018-12-21T00:45:04.054Z,74.60
2018-12-21T00:47:31.922Z,75.10
2018-12-21T00:49:59.691Z,75.30
2018-12-21T00:52:27.463Z,75.10
2018-12-21T00:54:55.374Z,75.70
2018-12-21T00:57:23.118Z,75.90
2018-12-21T00:59:51.214Z,75.50
2018-12-21T01:02:18.963Z,75.20
2018-12-21T01:04:47.051Z,73.80
2018-12-21T01:07:14.951Z,74.00
2018-12-21T01:09:42.723Z,74.20
2018-12-21T01:12:10.963Z,74.40
2018-12-21T01:14:39.722Z,73.60
2018-12-21T01:17:07.513Z,72.90
2018-12-21T01:19:35.259Z,73.50
2018-12-21T01:22:03.547Z,74.20
2018-12-21T01:24:31.284Z,74.90
2018-12-21T01:26:59.111Z,75.00
2018-12-21T01:29:26.958Z,75.10
2018-12-21T01:31:54.752Z,74.70
2018-12-21T01:34:22.555Z,75.20
2018-12-21T01:36:50.344Z,76.10
2018-12-21T01:39:18.248Z,77.20
2018-12-21T01:41:46.130Z,77.30
2018-12-21T01:44:14.086Z,78.00
2018-12-21T01:46:41.917Z,78.80
2018-12-21T01:49:09.695Z,79.00
2018-12-21T01:51:38.279Z,79.50
2018-12-21T01:54:06.006Z,80.10
2018-12-21T01:56:33.745Z,80.20
2018-12-21T01:59:01.470Z,80.30
2018-12-21T02:01:29.590Z,80.50
2018-12-21T02:03:57.932Z,80.80
2018-12-21T02:06:26.539Z,80.40
2018-12-21T02:08:54.299Z,80.70
2018-12-21T02:11:22.107Z,81.60
2018-12-21T02:13:49.931Z,81.90
2018-12-21T02:16:17.675Z,80.10
2018-12-21T02:21:38.457Z,81.40
2018-12-21T02:24:06.219Z,81.10
2018-12-21T02:26:33.970Z,80.80
2018-12-21T02:29:02.371Z,80.10
2018-12-21T02:31:30.137Z,79.80
2018-12-21T02:33:57.887Z,79.60
2018-12-21T02:36:25.595Z,79.30
2018-12-21T02:38:53.353Z,78.40
2018-12-21T02:41:21.099Z,79.00
2018-12-21T02:43:48.880Z,78.70
2018-12-21T02:46:16.669Z,78.60
2018-12-21T02:48:44.509Z,78.50
2018-12-21T02:51:12.315Z,77.50
2018-12-21T02:53:40.083Z,77.30
2018-12-21T02:56:07.842Z,77.20
2018-12-21T02:58:35.570Z,75.80
2018-12-21T03:01:03.540Z,74.00
2018-12-21T03:03:31.316Z,73.40
2018-12-21T03:35:26.662Z,71.30
2018-12-21T04:04:16.269Z,62.10
2018-12-21T04:09:43.234Z,66.90
2018-12-21T04:12:12.132Z,67.10
2018-12-21T04:14:40.024Z,66.40
2018-12-21T04:17:07.753Z,64.60
2018-12-21T04:19:35.507Z,64.80
2018-12-21T04:22:03.259Z,64.80
2018-12-21T04:24:30.958Z,65.10
2018-12-21T04:26:58.755Z,64.40
2018-12-21T04:29:26.476Z,61.70
2018-12-21T04:37:37.079Z,55.70
2018-12-21T04:40:05.209Z,56.50
2018-12-21T04:48:20.204Z,58.90
2018-12-21T04:50:48.003Z,59.50
2018-12-21T04:53:15.786Z,59.40
2018-12-21T04:55:43.567Z,59.90
2018-12-21T04:58:11.445Z,60.00
2018-12-21T05:00:39.243Z,60.40
2018-12-21T05:08:59.626Z,65.80
2018-12-21T05:11:27.421Z,66.90
2018-12-21T05:13:55.521Z,67.20
2018-12-21T05:16:23.235Z,67.30
2018-12-21T05:18:51.003Z,67.70
2018-12-21T05:21:18.796Z,66.50
2018-12-21T05:23:47.252Z,65.60
2018-12-21T05:26:15.010Z,65.70
2018-12-21T05:28:42.841Z,65.60
2018-12-21T05:31:10.716Z,66.10
2018-12-21T05:33:39.099Z,67.00
2018-12-21T05:36:06.947Z,65.60
2018-12-21T05:38:34.762Z,66.20
2018-12-21T05:41:02.655Z,66.70
2018-12-21T05:43:30.443Z,67.10
2018-12-21T05:45:58.187Z,67.30
2018-12-21T05:48:26.183Z,67.10
2018-12-21T05:50:53.942Z,66.90
2018-12-21T05:53:21.677Z,66.60
2018-12-21T05:55:49.468Z,65.90
2018-12-21T05:58:17.480Z,65.10
2018-12-21T06:00:45.223Z,64.40
2018-12-21T06:03:13.026Z,64.70
2018-12-21T06:05:40.846Z,65.00
2018-12-21T06:08:08.615Z,65.50
2018-12-21T06:10:36.355Z,65.80
2018-12-21T06:13:04.087Z,65.40
2018-12-21T06:15:31.846Z,64.60
2018-12-21T06:17:59.631Z,65.00
2018-12-21T06:20:27.368Z,64.50
2018-12-21T06:22:55.157Z,64.10
2018-12-21T06:25:22.909Z,63.50
2018-12-21T06:33:58.507Z,63.90
2018-12-21T06:36:26.250Z,67.60
2018-12-21T06:38:54.283Z,68.60
2018-12-21T06:41:22.360Z,68.60
2018-12-21T06:43:50.159Z,69.20
2018-12-21T06:46:18.148Z,69.20
2018-12-21T06:48:45.956Z,69.60
2018-12-21T06:51:13.852Z,70.30
2018-12-21T06:53:41.742Z,68.40
2018-12-21T06:56:09.738Z,67.80
2018-12-21T06:58:37.605Z,66.50
2018-12-21T07:01:05.411Z,66.60
2018-12-21T07:03:33.179Z,64.40
2018-12-21T07:06:00.930Z,63.40
2018-12-21T07:08:28.698Z,62.90
2018-12-21T07:10:56.462Z,61.30
2018-12-21T07:13:24.216Z,60.00
2018-12-21T07:15:52.067Z,59.60
2018-12-21T07:18:19.822Z,59.40
2018-12-21T07:20:47.645Z,59.90
2018-12-21T07:23:15.483Z,61.00
2018-12-21T07:25:43.427Z,60.80
2018-12-21T07:28:11.383Z,60.40
2018-12-21T07:30:39.131Z,62.00
2018-12-21T07:33:06.863Z,62.70
2018-12-21T07:35:34.675Z,61.80
2018-12-21T07:38:02.416Z,62.10
2018-12-21T07:40:30.137Z,62.40
2018-12-21T07:42:58.284Z,62.80
2018-12-21T07:45:26.050Z,62.30
2018-12-21T07:47:53.837Z,60.40
2018-12-21T07:50:21.903Z,62.90
2018-12-21T07:52:49.644Z,63.70
2018-12-21T07:55:17.403Z,63.80
2018-12-21T07:57:45.142Z,61.40
2018-12-21T08:00:12.894Z,61.60
2018-12-21T08:02:40.799Z,60.80
2018-12-21T08:05:08.621Z,60.30
2018-12-21T08:07:36.410Z,58.50
2018-12-21T08:10:08.235Z,58.50
2018-12-21T08:12:36.172Z,57.40
2018-12-21T08:15:04.583Z,56.90
2018-12-21T08:17:32.315Z,58.20
2018-12-21T08:20:00.079Z,59.40
2018-12-21T08:22:27.882Z,62.00
2018-12-21T08:24:55.627Z,64.00
2018-12-21T08:30:21.751Z,65.40
2018-12-21T08:38:34.130Z,65.90
2018-12-21T08:41:01.903Z,66.00
2018-12-21T08:43:29.647Z,65.70
2018-12-21T08:51:46.000Z,65.90
2018-12-21T08:54:14.142Z,66.50
2018-12-21T08:56:42.148Z,67.10
2018-12-21T09:05:08.070Z,68.80
2018-12-21T09:07:37.204Z,68.40
2018-12-21T09:12:59.043Z,69.30
2018-12-21T09:15:26.870Z,69.40
2018-12-21T09:17:54.689Z,69.60
2018-12-21T09:20:22.431Z,69.70
2018-12-21T09:22:50.235Z,70.10
2018-12-21T09:25:18.148Z,70.50
2018-12-21T09:27:46.161Z,71.10
2018-12-21T09:30:14.441Z,71.50
2018-12-21T09:32:42.356Z,72.30
2018-12-21T09:35:10.368Z,72.90
2018-12-21T09:43:24.111Z,71.50
2018-12-21T09:45:51.895Z,71.50
2018-12-21T09:51:28.966Z,70.90
2018-12-21T09:53:57.014Z,71.10
2018-12-21T09:56:24.846Z,71.50
2018-12-21T09:58:52.594Z,71.60
2018-12-21T10:01:20.335Z,72.70
2018-12-21T10:03:48.320Z,72.70
2018-12-21T10:06:16.155Z,72.60
2018-12-21T10:08:43.964Z,73.00
2018-12-21T10:11:11.845Z,72.90
2018-12-21T10:13:39.707Z,72.20
2018-12-21T10:16:07.439Z,71.60
2018-12-21T10:18:35.183Z,70.70
2018-12-21T10:21:03.100Z,70.60
2018-12-21T10:23:30.902Z,70.90
2018-12-21T10:25:58.815Z,71.30
2018-12-21T10:28:26.615Z,70.10
2018-12-21T10:30:54.399Z,70.30
2018-12-21T10:33:22.253Z,70.80
2018-12-21T10:35:50.116Z,71.30
2018-12-21T10:38:17.902Z,71.80
2018-12-21T10:40:45.770Z,73.00
2018-12-21T10:43:13.952Z,73.30
2018-12-21T10:45:42.002Z,73.70
2018-12-21T10:48:09.817Z,74.00
2018-12-21T10:50:37.590Z,74.40
2018-12-21T10:53:05.475Z,73.30
2018-12-21T10:55:33.262Z,71.30
2018-12-21T10:58:01.026Z,71.80
2018-12-21T11:00:28.971Z,71.10
2018-12-21T11:02:56.871Z,69.40
2018-12-21T11:05:24.676Z,66.80
2018-12-21T11:07:52.569Z,68.50
2018-12-21T11:10:20.357Z,68.80
2018-12-21T11:12:48.622Z,69.00
2018-12-21T11:15:16.572Z,68.60
2018-12-21T11:17:44.523Z,68.20
2018-12-21T11:20:12.736Z,68.00
2018-12-21T11:22:40.724Z,67.30
2018-12-21T11:25:10.463Z,66.30
2018-12-21T11:27:40.353Z,65.80
2018-12-21T11:30:09.055Z,65.20
2018-12-21T11:32:36.840Z,65.60
2018-12-21T11:35:04.712Z,66.00
2018-12-21T11:37:32.491Z,66.10
2018-12-21T11:40:00.348Z,66.70
2018-12-21T11:42:28.439Z,68.10
2018-12-21T11:44:56.234Z,69.20
2018-12-21T11:47:24.146Z,69.00
2018-12-21T11:49:52.105Z,70.40
2018-12-21T11:52:19.868Z,71.10
2018-12-21T11:54:47.725Z,70.30
2018-12-21T11:57:15.514Z,69.20
2018-12-21T11:59:45.022Z,70.50
2018-12-21T12:02:19.465Z,69.80
2018-12-21T12:04:43.044Z,70.40
2018-12-21T12:07:10.855Z,69.50
2018-12-21T12:09:38.671Z,70.00
2018-12-21T12:12:06.505Z,69.60
2018-12-21T12:14:34.327Z,69.00
2018-12-21T12:17:02.071Z,68.30
2018-12-21T12:19:29.852Z,69.50
2018-12-21T12:21:57.610Z,70.50
2018-12-21T12:33:05.076Z,72.00
2018-12-21T12:35:32.919Z,72.40
2018-12-21T12:38:00.871Z,72.50
2018-12-21T12:40:28.666Z,73.30
2018-12-21T12:42:56.418Z,73.60
2018-12-21T12:45:24.453Z,74.30
2018-12-21T12:47:52.272Z,73.60
2018-12-21T12:50:20.047Z,74.20
2018-12-21T12:52:47.841Z,74.10
2018-12-21T12:55:15.672Z,75.40
2018-12-21T12:57:43.637Z,76.30
2018-12-21T13:00:12.399Z,76.50
2018-12-21T13:02:40.182Z,78.20
2018-12-21T13:05:08.560Z,77.80
2018-12-21T13:07:36.369Z,77.70
2018-12-21T13:10:05.703Z,77.70
2018-12-21T13:12:33.520Z,78.40
2018-12-21T13:15:01.338Z,78.90
2018-12-21T13:17:29.517Z,79.50
2018-12-21T13:19:57.736Z,78.80
2018-12-21T13:22:25.520Z,79.30
2018-12-21T13:24:53.287Z,79.30
2018-12-21T13:27:21.044Z,78.60
2018-12-21T13:29:48.760Z,79.10
2018-12-21T13:32:16.748Z,79.80
2018-12-21T13:34:44.681Z,80.50
2018-12-21T13:37:12.453Z,80.40
2018-12-21T13:39:40.385Z,80.90
2018-12-21T13:42:08.200Z,81.20
2018-12-21T13:44:35.956Z,81.50
2018-12-21T13:47:06.574Z,82.10
2018-12-21T13:49:34.338Z,82.40
2018-12-21T13:52:02.187Z,83.50
2018-12-21T13:54:29.972Z,84.30
2018-12-21T13:56:58.005Z,84.70
2018-12-21T13:59:25.822Z,84.30
2018-12-21T14:01:53.679Z,85.00
2018-12-21T14:04:21.541Z,84.70
2018-12-21T14:06:49.383Z,85.20
2018-12-21T14:09:17.201Z,86.00
2018-12-21T14:11:45.081Z,86.60
2018-12-21T14:14:12.885Z,86.80
2018-12-21T14:16:40.658Z,86.90
2018-12-21T14:19:08.468Z,87.20
2018-12-21T14:21:36.235Z,87.80
2018-12-21T14:24:04.113Z,88.40
2018-12-21T14:26:31.877Z,88.40
2018-12-21T14:28:59.648Z,88.40
2018-12-21T14:31:27.464Z,89.10
2018-12-21T14:33:55.277Z,87.40
2018-12-21T14:36:29.447Z,88.20
2018-12-21T14:38:57.228Z,87.70
2018-12-21T14:41:25.581Z,87.80
2018-12-21T14:43:53.442Z,88.50
2018-12-21T14:46:21.250Z,88.70
2018-12-21T14:48:49.032Z,89.80
2018-12-21T14:51:17.077Z,89.40
2018-12-21T14:53:44.979Z,89.70
2018-12-21T14:56:12.851Z,89.90
2018-12-21T14:58:40.591Z,90.20
2018-12-21T15:01:08.378Z,90.20
2018-12-21T15:03:36.271Z,90.30
2018-12-21T15:06:04.294Z,90.40
2018-12-21T15:08:32.143Z,90.50
2018-12-21T15:10:59.921Z,90.60
2018-12-21T15:13:27.821Z,90.70
2018-12-21T15:15:55.671Z,91.00
2018-12-21T15:18:23.595Z,90.80
2018-12-21T15:20:51.459Z,90.60
2018-12-21T15:23:19.239Z,91.70
2018-12-21T15:25:47.107Z,91.80
2018-12-21T15:28:15.053Z,91.60
2018-12-21T15:30:42.900Z,92.00
2018-12-21T15:33:10.676Z,91.90
2018-12-21T15:35:38.504Z,92.20
2018-12-21T15:38:06.415Z,92.40
2018-12-21T15:40:34.183Z,92.80
2018-12-21T15:43:01.958Z,92.60
2018-12-21T15:45:29.786Z,92.40
2018-12-21T15:47:57.679Z,92.20
2018-12-21T15:50:25.441Z,92.00
2018-12-21T15:52:53.230Z,92.00
2018-12-21T15:55:21.029Z,91.60
2018-12-21T15:57:48.799Z,91.70
2018-12-21T16:00:16.878Z,91.80
2018-12-21T16:02:48.111Z,91.60
2018-12-21T16:05:15.989Z,91.50
2018-12-21T16:07:43.821Z,91.20
2018-12-21T16:10:11.611Z,91.00
2018-12-21T16:12:39.398Z,90.90
2018-12-21T16:15:07.674Z,90.80
2018-12-21T16:17:35.435Z,90.50
2018-12-21T16:20:03.725Z,90.80
2018-12-21T16:22:31.529Z,90.70
2018-12-21T16:24:59.280Z,90.50
2018-12-21T16:27:27.039Z,90.60
2018-12-21T16:29:54.795Z,90.70
2018-12-21T16:32:24.839Z,90.20
2018-12-21T16:34:52.690Z,89.20
2018-12-21T16:37:20.570Z,89.70
2018-12-21T16:39:48.357Z,89.00
2018-12-21T16:42:16.270Z,88.80
2018-12-21T16:44:44.083Z,88.10
2018-12-21T16:47:11.831Z,86.50
2018-12-21T16:49:39.725Z,87.00
2018-12-21T16:52:07.530Z,86.50
2018-12-21T16:54:35.388Z,85.60
2018-12-21T16:57:03.180Z,86.70
2018-12-21T16:59:31.023Z,87.20
2018-12-21T17:01:58.836Z,87.30
2018-12-21T17:04:26.864Z,87.90
2018-12-21T17:06:54.659Z,88.30
2018-12-21T17:09:23.034Z,88.40
2018-12-21T17:11:50.862Z,89.20
2018-12-21T17:14:18.709Z,89.00
2018-12-21T17:16:46.595Z,89.00
2018-12-21T17:19:17.101Z,89.70
2018-12-21T17:21:45.147Z,90.10
2018-12-21T17:24:13.047Z,90.30
2018-12-21T17:26:41.211Z,90.50
2018-12-21T17:29:09.269Z,90.60
2018-12-21T17:31:37.077Z,90.60
2018-12-21T17:34:04.992Z,90.50
2018-12-21T17:36:32.819Z,90.30
2018-12-21T17:39:00.683Z,90.10
2018-12-21T17:41:28.667Z,90.10
2018-12-21T17:43:56.478Z,90.10
2018-12-21T17:46:24.276Z,90.00
2018-12-21T17:48:52.151Z,89.80
2018-12-21T17:51:19.970Z,89.10
2018-12-21T17:53:47.871Z,87.70
2018-12-21T17:56:15.759Z,87.40
2018-12-21T17:58:43.625Z,85.90
2018-12-21T18:01:11.424Z,86.20
2018-12-21T18:03:56.152Z,85.70
2018-12-21T18:06:23.953Z,85.40
2018-12-21T18:08:51.729Z,85.50
2018-12-21T18:11:19.540Z,85.00
2018-12-21T18:13:47.564Z,85.20
2018-12-21T18:16:15.436Z,84.50
2018-12-21T18:18:43.219Z,85.00
2018-12-21T18:21:11.023Z,82.70
2018-12-21T18:23:39.612Z,83.40
2018-12-21T18:26:08.003Z,83.40
2018-12-21T18:28:35.859Z,83.70
2018-12-21T18:31:25.626Z,84.40
2018-12-21T18:33:53.486Z,85.00
2018-12-21T18:36:21.302Z,84.80
2018-12-21T18:38:49.231Z,85.20
2018-12-21T18:41:17.173Z,83.90
2018-12-21T18:43:45.150Z,83.70
2018-12-21T18:46:12.999Z,82.90
2018-12-21T18:48:40.788Z,82.30
2018-12-21T18:51:08.546Z,81.30
2018-12-21T18:53:36.293Z,82.20
2018-12-21T18:56:06.847Z,83.10
2018-12-21T18:58:35.175Z,84.00
2018-12-21T19:01:02.960Z,84.50
2018-12-21T19:03:30.761Z,85.50
2018-12-21T19:05:58.532Z,86.20
2018-12-21T19:08:26.297Z,86.70
2018-12-21T19:10:54.023Z,85.90
2018-12-21T19:13:21.827Z,83.90
2018-12-21T19:15:49.615Z,84.10
2018-12-21T19:18:17.434Z,84.00
2018-12-21T19:20:45.174Z,83.20
2018-12-21T19:23:12.970Z,82.40
2018-12-21T19:25:40.776Z,82.60
2018-12-21T19:28:08.529Z,83.60
2018-12-21T19:30:36.274Z,83.40
2018-12-21T19:33:04.022Z,83.50
2018-12-21T19:35:31.812Z,84.90
2018-12-21T19:37:59.655Z,85.90
2018-12-21T19:40:27.411Z,85.60
2018-12-21T19:42:55.411Z,86.50
2018-12-21T19:45:23.291Z,86.40
2018-12-21T19:47:51.118Z,86.50
2018-12-21T19:50:19.028Z,87.90
2018-12-21T19:52:46.947Z,89.20
2018-12-21T19:55:25.487Z,90.00
2018-12-21T19:57:53.238Z,90.40
2018-12-21T20:00:21.099Z,90.70
2018-12-21T20:02:49.314Z,91.00
2018-12-21T20:05:17.258Z,90.10
2018-12-21T20:07:45.019Z,90.10
2018-12-21T20:10:12.962Z,90.20
2018-12-21T20:12:40.796Z,90.20
2018-12-21T20:15:08.584Z,90.20
2018-12-21T20:17:36.439Z,90.40
2018-12-21T20:20:04.833Z,90.50
2018-12-21T20:22:32.627Z,90.70
2018-12-21T20:25:00.551Z,90.80
2018-12-21T20:27:28.331Z,90.50
2018-12-21T20:29:56.113Z,90.70
2018-12-21T20:32:24.016Z,90.50
2018-12-21T20:34:51.951Z,90.70
2018-12-21T20:37:19.836Z,90.80
2018-12-21T20:39:48.393Z,90.80
2018-12-21T20:42:16.255Z,90.90
2018-12-21T20:44:44.051Z,91.10
2018-12-21T20:47:11.882Z,91.00
2018-12-21T20:49:39.632Z,90.70
2018-12-21T20:52:07.424Z,90.70
2018-12-21T20:54:35.417Z,90.20
2018-12-21T20:57:04.712Z,90.30
2018-12-21T20:59:33.324Z,90.20
2018-12-21T21:02:01.191Z,90.40
2018-12-21T21:04:28.976Z,90.00
2018-12-21T21:06:56.763Z,90.00
2018-12-21T21:09:24.578Z,89.90
2018-12-21T21:11:52.382Z,88.80
2018-12-21T21:14:21.384Z,88.10
2018-12-21T21:16:50.297Z,88.40
2018-12-21T21:19:18.308Z,88.10
2018-12-21T21:21:46.215Z,87.90
2018-12-21T21:24:14.185Z,85.90
2018-12-21T21:26:41.931Z,85.60
2018-12-21T21:29:09.731Z,85.70
2018-12-21T21:31:40.377Z,85.40
2018-12-21T21:34:08.207Z,86.50
2018-12-21T21:36:35.978Z,86.70
2018-12-21T21:39:05.677Z,86.10
2018-12-21T21:41:33.503Z,87.20
2018-12-21T21:44:01.299Z,86.80
2018-12-21T21:46:29.075Z,86.30
2018-12-21T21:48:56.847Z,87.40
2018-12-21T21:51:24.615Z,88.60
2018-12-21T21:53:52.390Z,89.80
2018-12-21T21:56:20.247Z,90.20
2018-12-21T21:58:48.406Z,90.00
2018-12-21T22:01:16.217Z,90.20
2018-12-21T22:03:44.047Z,89.80
2018-12-21T22:06:11.891Z,90.20
2018-12-21T22:08:39.649Z,90.20
2018-12-21T22:11:07.416Z,90.50
2018-12-21T22:13:35.216Z,90.30
2018-12-21T22:16:02.963Z,90.40
2018-12-21T22:18:30.712Z,90.30
2018-12-21T22:20:58.916Z,90.30
2018-12-21T22:23:26.719Z,90.20
2018-12-21T22:25:54.495Z,90.20
2018-12-21T22:28:22.387Z,90.70
2018-12-21T22:30:50.360Z,91.10
2018-12-21T22:33:18.240Z,92.00
2018-12-21T22:35:46.087Z,92.40
2018-12-21T22:38:13.859Z,92.20
2018-12-21T22:40:41.627Z,92.70
2018-12-21T22:43:09.691Z,93.00
2018-12-21T22:45:37.492Z,93.20
2018-12-21T22:48:05.432Z,93.30
2018-12-21T22:50:33.220Z,93.30
2018-12-21T22:53:02.099Z,93.40
2018-12-21T22:55:29.926Z,93.90
2018-12-21T22:57:57.692Z,94.00
2018-12-21T23:00:34.003Z,94.00
2018-12-21T23:03:01.907Z,93.80
2018-12-21T23:05:29.757Z,93.90
2018-12-21T23:07:57.660Z,93.80
2018-12-21T23:10:25.468Z,93.80
2018-12-21T23:12:53.304Z,93.80
2018-12-21T23:15:21.158Z,93.50
2018-12-21T23:17:49.052Z,93.20
2018-12-21T23:20:16.835Z,92.90
2018-12-21T23:22:44.618Z,92.80
2018-12-21T23:25:12.451Z,92.70
2018-12-21T23:27:40.243Z,92.80
2018-12-21T23:30:09.125Z,92.90
2018-12-21T23:32:36.931Z,93.10
2018-12-21T23:35:06.105Z,93.00
2018-12-21T23:37:33.981Z,93.00
2018-12-21T23:40:01.751Z,92.70
2018-12-21T23:42:29.558Z,92.40
2018-12-21T23:44:57.466Z,92.60
2018-12-21T23:47:25.247Z,92.50
2018-12-21T23:49:53.120Z,92.50
2018-12-21T23:52:20.968Z,92.70
2018-12-21T23:54:48.775Z,92.40
2018-12-21T23:57:16.563Z,92.40
2018-12-21T23:59:44.484Z,92.40
